sensor_id;sensor_type;location;lat;lon;timestamp;temperature;humidity
58339;DHT22;48278;52.704;6.536;2023-02-19T00:01:33;9.30;99.90
58339;DHT22;48278;52.704;6.536;2023-02-19T00:04:02;9.30;99.90
58339;DHT22;48278;52.704;6.536;2023-02-19T00:06:30;9.30;99.90
58339;DHT22;48278;52.704;6.536;2023-02-19T00:08:56;9.30;99.90
58339;DHT22;48278;52.704;6.536;2023-02-19T00:11:25;9.30;99.90
58339;DHT22;48278;52.704;6.536;2023-02-19T00:13:53;9.20;99.90
58339;DHT22;48278;52.704;6.536;2023-02-19T00:16:34;9.30;99.90
58339;DHT22;48278;52.704;6.536;2023-02-19T00:19:01;9.30;99.90
58339;DHT22;48278;52.704;6.536;2023-02-19T00:21:28;9.30;99.90
58339;DHT22;48278;52.704;6.536;2023-02-19T00:23:57;9.30;99.90
58339;DHT22;48278;52.704;6.536;2023-02-19T00:26:23;9.30;99.90
58339;DHT22;48278;52.704;6.536;2023-02-19T00:28:50;9.30;99.90
58339;DHT22;48278;52.704;6.536;2023-02-19T00:31:21;9.30;99.90
58339;DHT22;48278;52.704;6.536;2023-02-19T00:33:49;9.30;99.90
58339;DHT22;48278;52.704;6.536;2023-02-19T00:36:16;9.30;99.90
58339;DHT22;48278;52.704;6.536;2023-02-19T00:38:42;9.30;99.90
58339;DHT22;48278;52.704;6.536;2023-02-19T00:41:10;9.30;99.90
58339;DHT22;48278;52.704;6.536;2023-02-19T00:46:19;9.20;99.90
58339;DHT22;48278;52.704;6.536;2023-02-19T00:48:45;9.20;99.90
58339;DHT22;48278;52.704;6.536;2023-02-19T00:51:11;9.20;99.90
58339;DHT22;48278;52.704;6.536;2023-02-19T00:53:37;9.10;99.90
58339;DHT22;48278;52.704;6.536;2023-02-19T00:56:03;9.10;99.90
58339;DHT22;48278;52.704;6.536;2023-02-19T00:58:29;9.10;99.90
58339;DHT22;48278;52.704;6.536;2023-02-19T01:00:55;9.10;99.90
58339;DHT22;48278;52.704;6.536;2023-02-19T01:03:21;9.10;99.90
58339;DHT22;48278;52.704;6.536;2023-02-19T01:05:48;9.10;99.90
58339;DHT22;48278;52.704;6.536;2023-02-19T01:08:14;9.10;99.90
58339;DHT22;48278;52.704;6.536;2023-02-19T01:10:40;9.10;99.90
58339;DHT22;48278;52.704;6.536;2023-02-19T01:13:06;9.00;99.90
58339;DHT22;48278;52.704;6.536;2023-02-19T01:15:32;9.00;99.90
58339;DHT22;48278;52.704;6.536;2023-02-19T01:17:58;9.00;99.90
58339;DHT22;48278;52.704;6.536;2023-02-19T01:20:24;8.90;99.90
58339;DHT22;48278;52.704;6.536;2023-02-19T01:22:51;9.00;99.90
58339;DHT22;48278;52.704;6.536;2023-02-19T01:25:16;9.00;99.90
58339;DHT22;48278;52.704;6.536;2023-02-19T01:27:42;9.00;99.90
58339;DHT22;48278;52.704;6.536;2023-02-19T01:30:08;9.00;99.90
58339;DHT22;48278;52.704;6.536;2023-02-19T01:32:34;9.00;99.90
58339;DHT22;48278;52.704;6.536;2023-02-19T01:35:00;9.00;99.90
58339;DHT22;48278;52.704;6.536;2023-02-19T01:37:26;9.00;99.90
58339;DHT22;48278;52.704;6.536;2023-02-19T01:39:52;8.90;99.90
58339;DHT22;48278;52.704;6.536;2023-02-19T01:42:17;8.90;99.90
58339;DHT22;48278;52.704;6.536;2023-02-19T01:47:14;8.90;99.90
58339;DHT22;48278;52.704;6.536;2023-02-19T01:49:51;8.90;99.90
58339;DHT22;48278;52.704;6.536;2023-02-19T01:52:45;8.90;99.90
58339;DHT22;48278;52.704;6.536;2023-02-19T01:55:12;8.90;99.90
58339;DHT22;48278;52.704;6.536;2023-02-19T01:57:42;8.90;99.90
58339;DHT22;48278;52.704;6.536;2023-02-19T02:00:11;8.90;99.90
58339;DHT22;48278;52.704;6.536;2023-02-19T02:02:39;8.90;99.90
58339;DHT22;48278;52.704;6.536;2023-02-19T02:05:09;8.90;99.90
58339;DHT22;48278;52.704;6.536;2023-02-19T02:07:35;8.90;99.90
58339;DHT22;48278;52.704;6.536;2023-02-19T02:10:19;8.90;99.90
58339;DHT22;48278;52.704;6.536;2023-02-19T02:12:50;8.90;99.90
58339;DHT22;48278;52.704;6.536;2023-02-19T02:15:17;8.90;99.90
58339;DHT22;48278;52.704;6.536;2023-02-19T02:18:00;8.90;99.90
58339;DHT22;48278;52.704;6.536;2023-02-19T02:20:57;8.90;99.90
58339;DHT22;48278;52.704;6.536;2023-02-19T02:23:53;8.90;99.90
58339;DHT22;48278;52.704;6.536;2023-02-19T02:31:56;8.90;99.90
58339;DHT22;48278;52.704;6.536;2023-02-19T02:34:36;8.90;99.90
58339;DHT22;48278;52.704;6.536;2023-02-19T02:37:06;8.90;99.90
58339;DHT22;48278;52.704;6.536;2023-02-19T02:39:33;8.90;99.90
58339;DHT22;48278;52.704;6.536;2023-02-19T02:42:01;8.90;99.90
58339;DHT22;48278;52.704;6.536;2023-02-19T02:44:45;9.00;99.90
58339;DHT22;48278;52.704;6.536;2023-02-19T02:47:33;9.00;99.90
58339;DHT22;48278;52.704;6.536;2023-02-19T02:52:54;8.90;99.90
58339;DHT22;48278;52.704;6.536;2023-02-19T02:55:42;9.00;99.90
58339;DHT22;48278;52.704;6.536;2023-02-19T02:58:09;8.90;99.90
58339;DHT22;48278;52.704;6.536;2023-02-19T03:00:37;8.90;99.90
58339;DHT22;48278;52.704;6.536;2023-02-19T03:03:24;8.80;99.90
58339;DHT22;48278;52.704;6.536;2023-02-19T03:05:55;8.80;99.90
58339;DHT22;48278;52.704;6.536;2023-02-19T03:08:28;8.80;99.90
58339;DHT22;48278;52.704;6.536;2023-02-19T03:11:03;8.70;99.90
58339;DHT22;48278;52.704;6.536;2023-02-19T03:13:58;8.70;99.90
58339;DHT22;48278;52.704;6.536;2023-02-19T03:16:45;8.70;99.90
58339;DHT22;48278;52.704;6.536;2023-02-19T03:19:36;8.70;99.90
58339;DHT22;48278;52.704;6.536;2023-02-19T03:22:08;8.70;99.90
58339;DHT22;48278;52.704;6.536;2023-02-19T03:24:40;8.60;99.90
58339;DHT22;48278;52.704;6.536;2023-02-19T03:27:27;8.60;99.90
58339;DHT22;48278;52.704;6.536;2023-02-19T03:29:57;8.60;99.90
58339;DHT22;48278;52.704;6.536;2023-02-19T03:32:44;8.60;99.90
58339;DHT22;48278;52.704;6.536;2023-02-19T03:35:15;8.60;99.90
58339;DHT22;48278;52.704;6.536;2023-02-19T03:38:09;8.60;99.90
58339;DHT22;48278;52.704;6.536;2023-02-19T03:41:03;8.60;99.90
58339;DHT22;48278;52.704;6.536;2023-02-19T03:52:07;8.60;99.90
58339;DHT22;48278;52.704;6.536;2023-02-19T04:00:43;8.50;99.90
58339;DHT22;48278;52.704;6.536;2023-02-19T04:05:42;8.50;99.90
58339;DHT22;48278;52.704;6.536;2023-02-19T04:08:14;8.50;99.90
58339;DHT22;48278;52.704;6.536;2023-02-19T04:10:41;8.60;99.90
58339;DHT22;48278;52.704;6.536;2023-02-19T04:13:17;8.50;99.90
58339;DHT22;48278;52.704;6.536;2023-02-19T04:15:46;8.50;99.90
58339;DHT22;48278;52.704;6.536;2023-02-19T04:18:23;8.60;99.90
58339;DHT22;48278;52.704;6.536;2023-02-19T04:20:50;8.60;99.90
58339;DHT22;48278;52.704;6.536;2023-02-19T04:23:21;8.60;99.90
58339;DHT22;48278;52.704;6.536;2023-02-19T04:25:50;8.50;99.90
58339;DHT22;48278;52.704;6.536;2023-02-19T04:28:18;8.50;99.90
58339;DHT22;48278;52.704;6.536;2023-02-19T04:30:44;8.50;99.90
58339;DHT22;48278;52.704;6.536;2023-02-19T04:33:10;8.50;99.90
58339;DHT22;48278;52.704;6.536;2023-02-19T04:35:35;8.50;99.90
58339;DHT22;48278;52.704;6.536;2023-02-19T04:38:01;8.50;99.90
58339;DHT22;48278;52.704;6.536;2023-02-19T04:40:27;8.40;99.90
58339;DHT22;48278;52.704;6.536;2023-02-19T04:42:53;8.40;99.90
58339;DHT22;48278;52.704;6.536;2023-02-19T04:45:19;8.40;99.90
58339;DHT22;48278;52.704;6.536;2023-02-19T04:47:44;8.40;99.90
58339;DHT22;48278;52.704;6.536;2023-02-19T04:50:10;8.40;99.90
58339;DHT22;48278;52.704;6.536;2023-02-19T04:52:36;8.40;99.90
58339;DHT22;48278;52.704;6.536;2023-02-19T04:55:01;8.40;99.90
58339;DHT22;48278;52.704;6.536;2023-02-19T04:57:27;8.30;99.90
58339;DHT22;48278;52.704;6.536;2023-02-19T04:59:53;8.30;99.90
58339;DHT22;48278;52.704;6.536;2023-02-19T05:02:18;8.30;99.90
58339;DHT22;48278;52.704;6.536;2023-02-19T05:04:44;8.20;99.90
58339;DHT22;48278;52.704;6.536;2023-02-19T05:07:10;8.20;99.90
58339;DHT22;48278;52.704;6.536;2023-02-19T05:09:35;8.20;99.90
58339;DHT22;48278;52.704;6.536;2023-02-19T05:12:02;8.20;99.90
58339;DHT22;48278;52.704;6.536;2023-02-19T05:14:28;8.20;99.90
58339;DHT22;48278;52.704;6.536;2023-02-19T05:16:54;8.20;99.90
58339;DHT22;48278;52.704;6.536;2023-02-19T05:19:19;8.20;99.90
58339;DHT22;48278;52.704;6.536;2023-02-19T05:21:45;8.20;99.90
58339;DHT22;48278;52.704;6.536;2023-02-19T05:24:11;8.20;99.90
58339;DHT22;48278;52.704;6.536;2023-02-19T05:26:36;8.20;99.90
58339;DHT22;48278;52.704;6.536;2023-02-19T05:29:02;8.20;99.90
58339;DHT22;48278;52.704;6.536;2023-02-19T05:31:28;8.20;99.90
58339;DHT22;48278;52.704;6.536;2023-02-19T05:33:55;8.20;99.90
58339;DHT22;48278;52.704;6.536;2023-02-19T05:36:21;8.20;99.90
58339;DHT22;48278;52.704;6.536;2023-02-19T05:38:51;8.20;99.90
58339;DHT22;48278;52.704;6.536;2023-02-19T05:41:23;8.10;99.90
58339;DHT22;48278;52.704;6.536;2023-02-19T05:43:49;7.90;99.90
58339;DHT22;48278;52.704;6.536;2023-02-19T05:46:17;7.80;99.90
58339;DHT22;48278;52.704;6.536;2023-02-19T05:48:44;7.60;99.90
58339;DHT22;48278;52.704;6.536;2023-02-19T05:51:13;7.30;99.90
58339;DHT22;48278;52.704;6.536;2023-02-19T05:53:40;7.20;99.90
58339;DHT22;48278;52.704;6.536;2023-02-19T05:58:50;7.10;99.90
58339;DHT22;48278;52.704;6.536;2023-02-19T06:01:18;6.90;99.90
58339;DHT22;48278;52.704;6.536;2023-02-19T06:03:44;6.90;99.90
58339;DHT22;48278;52.704;6.536;2023-02-19T06:06:15;6.90;99.90
58339;DHT22;48278;52.704;6.536;2023-02-19T06:08:40;6.90;99.90
58339;DHT22;48278;52.704;6.536;2023-02-19T06:11:06;7.00;99.90
58339;DHT22;48278;52.704;6.536;2023-02-19T06:13:32;6.80;99.90
58339;DHT22;48278;52.704;6.536;2023-02-19T06:15:58;6.80;99.90
58339;DHT22;48278;52.704;6.536;2023-02-19T06:18:23;6.70;99.90
58339;DHT22;48278;52.704;6.536;2023-02-19T06:20:49;6.70;99.90
58339;DHT22;48278;52.704;6.536;2023-02-19T06:23:15;6.60;99.90
58339;DHT22;48278;52.704;6.536;2023-02-19T06:25:40;6.70;99.90
58339;DHT22;48278;52.704;6.536;2023-02-19T06:28:06;6.60;99.90
58339;DHT22;48278;52.704;6.536;2023-02-19T06:30:34;6.60;99.90
58339;DHT22;48278;52.704;6.536;2023-02-19T06:33:00;6.60;99.90
58339;DHT22;48278;52.704;6.536;2023-02-19T06:35:26;6.60;99.90
58339;DHT22;48278;52.704;6.536;2023-02-19T06:37:51;6.50;99.90
58339;DHT22;48278;52.704;6.536;2023-02-19T06:40:17;6.60;99.90
58339;DHT22;48278;52.704;6.536;2023-02-19T06:42:43;6.50;99.90
58339;DHT22;48278;52.704;6.536;2023-02-19T06:45:09;6.60;99.90
58339;DHT22;48278;52.704;6.536;2023-02-19T06:47:35;6.60;99.90
58339;DHT22;48278;52.704;6.536;2023-02-19T06:50:00;6.60;99.90
58339;DHT22;48278;52.704;6.536;2023-02-19T06:52:26;6.50;99.90
58339;DHT22;48278;52.704;6.536;2023-02-19T06:54:52;6.60;99.90
58339;DHT22;48278;52.704;6.536;2023-02-19T06:57:18;6.60;99.90
58339;DHT22;48278;52.704;6.536;2023-02-19T06:59:45;6.50;99.90
58339;DHT22;48278;52.704;6.536;2023-02-19T07:02:11;6.40;99.90
58339;DHT22;48278;52.704;6.536;2023-02-19T07:04:37;6.50;99.90
58339;DHT22;48278;52.704;6.536;2023-02-19T07:07:03;6.40;99.90
58339;DHT22;48278;52.704;6.536;2023-02-19T07:09:29;6.40;99.90
58339;DHT22;48278;52.704;6.536;2023-02-19T07:11:55;6.30;99.90
58339;DHT22;48278;52.704;6.536;2023-02-19T07:14:21;6.40;99.90
58339;DHT22;48278;52.704;6.536;2023-02-19T07:16:47;6.40;99.90
58339;DHT22;48278;52.704;6.536;2023-02-19T07:19:13;6.30;99.90
58339;DHT22;48278;52.704;6.536;2023-02-19T07:21:40;6.30;99.90
58339;DHT22;48278;52.704;6.536;2023-02-19T07:24:07;6.40;99.90
58339;DHT22;48278;52.704;6.536;2023-02-19T07:26:34;6.40;99.90
58339;DHT22;48278;52.704;6.536;2023-02-19T07:29:00;6.30;99.90
58339;DHT22;48278;52.704;6.536;2023-02-19T07:31:27;6.40;99.90
58339;DHT22;48278;52.704;6.536;2023-02-19T07:33:53;6.40;99.90
58339;DHT22;48278;52.704;6.536;2023-02-19T07:36:20;6.40;99.90
58339;DHT22;48278;52.704;6.536;2023-02-19T07:38:51;6.40;99.90
58339;DHT22;48278;52.704;6.536;2023-02-19T07:41:17;6.40;99.90
58339;DHT22;48278;52.704;6.536;2023-02-19T07:43:42;6.30;99.90
58339;DHT22;48278;52.704;6.536;2023-02-19T07:46:10;6.40;99.90
58339;DHT22;48278;52.704;6.536;2023-02-19T07:48:38;6.40;99.90
58339;DHT22;48278;52.704;6.536;2023-02-19T07:51:06;6.40;99.90
58339;DHT22;48278;52.704;6.536;2023-02-19T07:53:33;6.30;99.90
58339;DHT22;48278;52.704;6.536;2023-02-19T07:56:01;6.30;99.90
58339;DHT22;48278;52.704;6.536;2023-02-19T07:58:28;6.30;99.90
58339;DHT22;48278;52.704;6.536;2023-02-19T08:00:54;6.30;99.90
58339;DHT22;48278;52.704;6.536;2023-02-19T08:03:20;6.30;99.90
58339;DHT22;48278;52.704;6.536;2023-02-19T08:05:45;6.30;99.90
58339;DHT22;48278;52.704;6.536;2023-02-19T08:08:13;6.30;99.90
58339;DHT22;48278;52.704;6.536;2023-02-19T08:10:39;6.30;99.90
58339;DHT22;48278;52.704;6.536;2023-02-19T08:13:25;6.30;99.90
58339;DHT22;48278;52.704;6.536;2023-02-19T08:18:27;6.30;99.90
58339;DHT22;48278;52.704;6.536;2023-02-19T08:20:56;6.20;99.90
58339;DHT22;48278;52.704;6.536;2023-02-19T08:23:23;6.30;99.90
58339;DHT22;48278;52.704;6.536;2023-02-19T08:25:50;6.30;99.90
58339;DHT22;48278;52.704;6.536;2023-02-19T08:28:16;6.20;99.90
58339;DHT22;48278;52.704;6.536;2023-02-19T08:30:44;6.30;99.90
58339;DHT22;48278;52.704;6.536;2023-02-19T08:33:15;6.40;99.90
58339;DHT22;48278;52.704;6.536;2023-02-19T08:35:41;6.20;99.90
58339;DHT22;48278;52.704;6.536;2023-02-19T08:38:08;6.10;99.90
58339;DHT22;48278;52.704;6.536;2023-02-19T08:40:35;6.10;99.90
58339;DHT22;48278;52.704;6.536;2023-02-19T08:43:06;6.10;99.90
58339;DHT22;48278;52.704;6.536;2023-02-19T08:45:33;6.10;99.90
58339;DHT22;48278;52.704;6.536;2023-02-19T08:47:59;6.10;99.90
58339;DHT22;48278;52.704;6.536;2023-02-19T08:50:25;6.20;99.90
58339;DHT22;48278;52.704;6.536;2023-02-19T08:52:51;6.20;99.90
58339;DHT22;48278;52.704;6.536;2023-02-19T08:55:17;6.30;99.90
58339;DHT22;48278;52.704;6.536;2023-02-19T08:57:43;6.30;99.90
58339;DHT22;48278;52.704;6.536;2023-02-19T09:00:09;6.30;99.90
58339;DHT22;48278;52.704;6.536;2023-02-19T09:02:35;6.30;99.90
58339;DHT22;48278;52.704;6.536;2023-02-19T09:05:01;6.40;99.90
58339;DHT22;48278;52.704;6.536;2023-02-19T09:07:27;6.60;99.90
58339;DHT22;48278;52.704;6.536;2023-02-19T09:09:53;6.80;99.90
58339;DHT22;48278;52.704;6.536;2023-02-19T09:12:19;6.80;99.90
58339;DHT22;48278;52.704;6.536;2023-02-19T09:14:45;6.70;99.90
58339;DHT22;48278;52.704;6.536;2023-02-19T09:17:11;6.70;99.90
58339;DHT22;48278;52.704;6.536;2023-02-19T09:19:37;6.60;99.90
58339;DHT22;48278;52.704;6.536;2023-02-19T09:22:04;6.80;99.90
58339;DHT22;48278;52.704;6.536;2023-02-19T09:24:30;6.90;99.90
58339;DHT22;48278;52.704;6.536;2023-02-19T09:26:56;6.70;99.90
58339;DHT22;48278;52.704;6.536;2023-02-19T09:29:24;6.80;99.90
58339;DHT22;48278;52.704;6.536;2023-02-19T09:31:50;7.00;99.90
58339;DHT22;48278;52.704;6.536;2023-02-19T09:34:16;7.00;99.90
58339;DHT22;48278;52.704;6.536;2023-02-19T09:36:42;6.80;99.90
58339;DHT22;48278;52.704;6.536;2023-02-19T09:39:08;6.90;99.90
58339;DHT22;48278;52.704;6.536;2023-02-19T09:41:35;7.10;99.90
58339;DHT22;48278;52.704;6.536;2023-02-19T09:44:04;7.20;99.90
58339;DHT22;48278;52.704;6.536;2023-02-19T09:46:49;7.20;99.90
58339;DHT22;48278;52.704;6.536;2023-02-19T09:51:55;7.10;99.90
58339;DHT22;48278;52.704;6.536;2023-02-19T09:54:25;7.10;99.90
58339;DHT22;48278;52.704;6.536;2023-02-19T09:56:53;7.00;99.90
58339;DHT22;48278;52.704;6.536;2023-02-19T09:59:22;7.10;99.90
58339;DHT22;48278;52.704;6.536;2023-02-19T10:02:02;7.20;99.90
58339;DHT22;48278;52.704;6.536;2023-02-19T10:04:28;7.20;99.90
58339;DHT22;48278;52.704;6.536;2023-02-19T10:06:56;7.30;99.90
58339;DHT22;48278;52.704;6.536;2023-02-19T10:09:28;7.30;99.90
58339;DHT22;48278;52.704;6.536;2023-02-19T10:11:55;7.40;99.90
58339;DHT22;48278;52.704;6.536;2023-02-19T10:14:36;7.40;99.90
58339;DHT22;48278;52.704;6.536;2023-02-19T10:17:05;7.50;99.90
58339;DHT22;48278;52.704;6.536;2023-02-19T10:19:31;7.30;99.90
58339;DHT22;48278;52.704;6.536;2023-02-19T10:21:59;7.20;99.90
58339;DHT22;48278;52.704;6.536;2023-02-19T10:24:27;7.30;99.90
58339;DHT22;48278;52.704;6.536;2023-02-19T10:26:55;7.30;99.90
58339;DHT22;48278;52.704;6.536;2023-02-19T10:29:21;7.40;99.90
58339;DHT22;48278;52.704;6.536;2023-02-19T10:31:55;7.50;99.90
58339;DHT22;48278;52.704;6.536;2023-02-19T10:34:34;7.70;99.90
58339;DHT22;48278;52.704;6.536;2023-02-19T10:37:00;7.80;99.90
58339;DHT22;48278;52.704;6.536;2023-02-19T10:39:46;7.80;99.90
58339;DHT22;48278;52.704;6.536;2023-02-19T10:42:18;7.80;99.90
58339;DHT22;48278;52.704;6.536;2023-02-19T10:44:48;7.60;99.90
58339;DHT22;48278;52.704;6.536;2023-02-19T10:47:21;7.60;99.90
58339;DHT22;48278;52.704;6.536;2023-02-19T10:49:49;7.70;99.90
58339;DHT22;48278;52.704;6.536;2023-02-19T10:57:40;7.60;99.90
58339;DHT22;48278;52.704;6.536;2023-02-19T11:00:26;7.60;99.90
58339;DHT22;48278;52.704;6.536;2023-02-19T11:05:53;7.90;99.90
58339;DHT22;48278;52.704;6.536;2023-02-19T11:08:22;8.30;99.90
58339;DHT22;48278;52.704;6.536;2023-02-19T11:10:49;8.70;99.90
58339;DHT22;48278;52.704;6.536;2023-02-19T11:13:23;9.00;99.90
58339;DHT22;48278;52.704;6.536;2023-02-19T11:15:53;9.30;99.90
58339;DHT22;48278;52.704;6.536;2023-02-19T11:18:25;9.40;99.90
58339;DHT22;48278;52.704;6.536;2023-02-19T11:20:57;9.20;99.90
58339;DHT22;48278;52.704;6.536;2023-02-19T11:23:34;9.20;99.90
58339;DHT22;48278;52.704;6.536;2023-02-19T11:26:02;8.80;99.90
58339;DHT22;48278;52.704;6.536;2023-02-19T11:28:34;8.70;99.90
58339;DHT22;48278;52.704;6.536;2023-02-19T11:31:25;8.80;99.90
58339;DHT22;48278;52.704;6.536;2023-02-19T11:36:27;8.50;99.90
58339;DHT22;48278;52.704;6.536;2023-02-19T11:38:54;8.70;99.90
58339;DHT22;48278;52.704;6.536;2023-02-19T11:44:07;8.30;99.90
58339;DHT22;48278;52.704;6.536;2023-02-19T11:57:41;8.30;99.90
58339;DHT22;48278;52.704;6.536;2023-02-19T12:00:21;8.30;99.90
58339;DHT22;48278;52.704;6.536;2023-02-19T12:24:17;9.40;99.90
58339;DHT22;48278;52.704;6.536;2023-02-19T12:29:42;9.40;99.90
58339;DHT22;48278;52.704;6.536;2023-02-19T12:32:58;9.40;99.90
58339;DHT22;48278;52.704;6.536;2023-02-19T12:36:03;9.10;99.90
58339;DHT22;48278;52.704;6.536;2023-02-19T12:41:25;8.90;99.90
58339;DHT22;48278;52.704;6.536;2023-02-19T12:44:02;8.90;99.90
58339;DHT22;48278;52.704;6.536;2023-02-19T12:46:40;9.00;99.90
58339;DHT22;48278;52.704;6.536;2023-02-19T12:49:27;8.90;99.90
58339;DHT22;48278;52.704;6.536;2023-02-19T12:52:02;9.10;99.90
58339;DHT22;48278;52.704;6.536;2023-02-19T12:54:42;9.10;99.90
58339;DHT22;48278;52.704;6.536;2023-02-19T12:57:12;9.20;99.90
58339;DHT22;48278;52.704;6.536;2023-02-19T13:02:47;9.00;99.90
58339;DHT22;48278;52.704;6.536;2023-02-19T13:05:21;9.20;99.90
58339;DHT22;48278;52.704;6.536;2023-02-19T13:10:58;9.00;99.90
58339;DHT22;48278;52.704;6.536;2023-02-19T13:13:44;8.90;99.90
58339;DHT22;48278;52.704;6.536;2023-02-19T13:16:14;9.00;99.90
58339;DHT22;48278;52.704;6.536;2023-02-19T13:21:07;8.90;99.90
58339;DHT22;48278;52.704;6.536;2023-02-19T13:23:40;8.60;99.90
58339;DHT22;48278;52.704;6.536;2023-02-19T13:29:14;8.70;99.90
58339;DHT22;48278;52.704;6.536;2023-02-19T13:37:07;8.70;99.90
58339;DHT22;48278;52.704;6.536;2023-02-19T13:39:34;8.70;99.90
58339;DHT22;48278;52.704;6.536;2023-02-19T13:42:00;8.60;99.90
58339;DHT22;48278;52.704;6.536;2023-02-19T13:44:31;8.60;99.90
58339;DHT22;48278;52.704;6.536;2023-02-19T13:46:58;8.70;99.90
58339;DHT22;48278;52.704;6.536;2023-02-19T13:51:53;8.90;99.90
58339;DHT22;48278;52.704;6.536;2023-02-19T13:54:30;8.80;99.90
58339;DHT22;48278;52.704;6.536;2023-02-19T13:59:56;8.90;99.90
58339;DHT22;48278;52.704;6.536;2023-02-19T14:04:53;8.90;99.90
58339;DHT22;48278;52.704;6.536;2023-02-19T14:09:51;8.70;99.90
58339;DHT22;48278;52.704;6.536;2023-02-19T14:12:21;8.60;99.90
58339;DHT22;48278;52.704;6.536;2023-02-19T14:14:48;8.50;99.90
58339;DHT22;48278;52.704;6.536;2023-02-19T14:17:40;8.60;99.90
58339;DHT22;48278;52.704;6.536;2023-02-19T14:28:18;8.80;99.90
58339;DHT22;48278;52.704;6.536;2023-02-19T14:31:24;8.80;99.90
58339;DHT22;48278;52.704;6.536;2023-02-19T14:33:53;9.00;99.90
58339;DHT22;48278;52.704;6.536;2023-02-19T14:36:41;9.00;99.90
58339;DHT22;48278;52.704;6.536;2023-02-19T14:39:23;9.00;99.90
58339;DHT22;48278;52.704;6.536;2023-02-19T14:41:52;9.00;99.90
58339;DHT22;48278;52.704;6.536;2023-02-19T14:44:24;9.10;99.90
58339;DHT22;48278;52.704;6.536;2023-02-19T14:47:04;9.00;99.90
58339;DHT22;48278;52.704;6.536;2023-02-19T14:49:42;9.00;99.90
58339;DHT22;48278;52.704;6.536;2023-02-19T14:52:20;9.00;99.90
58339;DHT22;48278;52.704;6.536;2023-02-19T14:54:56;8.90;99.90
58339;DHT22;48278;52.704;6.536;2023-02-19T14:57:27;8.90;99.90
58339;DHT22;48278;52.704;6.536;2023-02-19T14:59:59;8.90;99.90
58339;DHT22;48278;52.704;6.536;2023-02-19T15:02:27;9.00;99.90
58339;DHT22;48278;52.704;6.536;2023-02-19T15:04:53;9.00;99.90
58339;DHT22;48278;52.704;6.536;2023-02-19T15:07:29;9.10;99.90
58339;DHT22;48278;52.704;6.536;2023-02-19T15:09:59;9.10;99.90
58339;DHT22;48278;52.704;6.536;2023-02-19T15:12:40;8.90;99.90
58339;DHT22;48278;52.704;6.536;2023-02-19T15:15:14;8.90;99.90
58339;DHT22;48278;52.704;6.536;2023-02-19T15:17:40;8.80;99.90
58339;DHT22;48278;52.704;6.536;2023-02-19T15:20:11;8.90;99.90
58339;DHT22;48278;52.704;6.536;2023-02-19T15:22:41;8.80;99.90
58339;DHT22;48278;52.704;6.536;2023-02-19T15:25:07;8.80;99.90
58339;DHT22;48278;52.704;6.536;2023-02-19T15:27:36;8.80;99.90
58339;DHT22;48278;52.704;6.536;2023-02-19T15:30:02;8.80;99.90
58339;DHT22;48278;52.704;6.536;2023-02-19T15:32:28;8.70;99.90
58339;DHT22;48278;52.704;6.536;2023-02-19T15:34:59;8.70;99.90
58339;DHT22;48278;52.704;6.536;2023-02-19T15:37:28;8.70;99.90
58339;DHT22;48278;52.704;6.536;2023-02-19T15:39:55;8.70;99.90
58339;DHT22;48278;52.704;6.536;2023-02-19T15:42:27;8.70;99.90
58339;DHT22;48278;52.704;6.536;2023-02-19T15:55:13;8.60;99.90
58339;DHT22;48278;52.704;6.536;2023-02-19T15:57:48;8.50;99.90
58339;DHT22;48278;52.704;6.536;2023-02-19T16:00:20;8.50;99.90
58339;DHT22;48278;52.704;6.536;2023-02-19T16:02:48;8.40;99.90
58339;DHT22;48278;52.704;6.536;2023-02-19T16:05:25;8.30;99.90
58339;DHT22;48278;52.704;6.536;2023-02-19T16:10:30;8.20;99.90
58339;DHT22;48278;52.704;6.536;2023-02-19T16:13:01;8.20;99.90
58339;DHT22;48278;52.704;6.536;2023-02-19T16:15:29;8.10;99.90
58339;DHT22;48278;52.704;6.536;2023-02-19T16:17:55;8.00;99.90
58339;DHT22;48278;52.704;6.536;2023-02-19T16:20:32;7.90;99.90
58339;DHT22;48278;52.704;6.536;2023-02-19T16:23:03;7.80;99.90
58339;DHT22;48278;52.704;6.536;2023-02-19T16:25:39;7.80;99.90
58339;DHT22;48278;52.704;6.536;2023-02-19T16:28:16;7.70;99.90
58339;DHT22;48278;52.704;6.536;2023-02-19T16:30:43;7.60;99.90
58339;DHT22;48278;52.704;6.536;2023-02-19T16:33:34;7.60;99.90
58339;DHT22;48278;52.704;6.536;2023-02-19T16:36:17;7.50;99.90
58339;DHT22;48278;52.704;6.536;2023-02-19T16:41:24;7.40;99.90
58339;DHT22;48278;52.704;6.536;2023-02-19T16:43:50;7.40;99.90
58339;DHT22;48278;52.704;6.536;2023-02-19T16:46:16;7.40;99.90
58339;DHT22;48278;52.704;6.536;2023-02-19T16:48:42;7.30;99.90
58339;DHT22;48278;52.704;6.536;2023-02-19T16:51:08;7.20;99.90
58339;DHT22;48278;52.704;6.536;2023-02-19T16:53:37;7.20;99.90
58339;DHT22;48278;52.704;6.536;2023-02-19T16:56:03;7.10;99.90
58339;DHT22;48278;52.704;6.536;2023-02-19T16:58:29;7.10;99.90
58339;DHT22;48278;52.704;6.536;2023-02-19T17:00:55;7.10;99.90
58339;DHT22;48278;52.704;6.536;2023-02-19T17:03:23;7.00;99.90
58339;DHT22;48278;52.704;6.536;2023-02-19T17:05:49;7.00;99.90
58339;DHT22;48278;52.704;6.536;2023-02-19T17:08:35;7.00;99.90
58339;DHT22;48278;52.704;6.536;2023-02-19T17:11:09;7.00;99.90
58339;DHT22;48278;52.704;6.536;2023-02-19T17:13:36;7.00;99.90
58339;DHT22;48278;52.704;6.536;2023-02-19T17:16:02;7.00;99.90
58339;DHT22;48278;52.704;6.536;2023-02-19T17:18:27;7.00;99.90
58339;DHT22;48278;52.704;6.536;2023-02-19T17:23:35;7.10;99.90
58339;DHT22;48278;52.704;6.536;2023-02-19T17:26:01;7.10;99.90
58339;DHT22;48278;52.704;6.536;2023-02-19T17:28:26;7.00;99.90
58339;DHT22;48278;52.704;6.536;2023-02-19T17:30:52;7.10;99.90
58339;DHT22;48278;52.704;6.536;2023-02-19T17:33:18;7.00;99.90
58339;DHT22;48278;52.704;6.536;2023-02-19T17:35:44;7.00;99.90
58339;DHT22;48278;52.704;6.536;2023-02-19T17:38:13;7.00;99.90
58339;DHT22;48278;52.704;6.536;2023-02-19T17:40:39;6.90;99.90
58339;DHT22;48278;52.704;6.536;2023-02-19T17:43:06;6.90;99.90
58339;DHT22;48278;52.704;6.536;2023-02-19T17:45:32;6.80;99.90
58339;DHT22;48278;52.704;6.536;2023-02-19T17:47:58;6.80;99.90
58339;DHT22;48278;52.704;6.536;2023-02-19T17:50:27;6.80;99.90
58339;DHT22;48278;52.704;6.536;2023-02-19T17:52:52;6.80;99.90
58339;DHT22;48278;52.704;6.536;2023-02-19T17:55:18;6.70;99.90
58339;DHT22;48278;52.704;6.536;2023-02-19T17:57:45;6.70;99.90
58339;DHT22;48278;52.704;6.536;2023-02-19T18:00:15;6.70;99.90
58339;DHT22;48278;52.704;6.536;2023-02-19T18:02:42;6.70;99.90
58339;DHT22;48278;52.704;6.536;2023-02-19T18:05:07;6.60;99.90
58339;DHT22;48278;52.704;6.536;2023-02-19T18:07:33;6.60;99.90
58339;DHT22;48278;52.704;6.536;2023-02-19T18:10:00;6.50;99.90
58339;DHT22;48278;52.704;6.536;2023-02-19T18:12:26;6.50;99.90
58339;DHT22;48278;52.704;6.536;2023-02-19T18:14:53;6.40;99.90
58339;DHT22;48278;52.704;6.536;2023-02-19T18:17:22;6.40;99.90
58339;DHT22;48278;52.704;6.536;2023-02-19T18:19:48;6.40;99.90
58339;DHT22;48278;52.704;6.536;2023-02-19T18:22:13;6.40;99.90
58339;DHT22;48278;52.704;6.536;2023-02-19T18:24:45;6.40;99.90
58339;DHT22;48278;52.704;6.536;2023-02-19T18:27:11;6.40;99.90